Time;durP1;ratioP1;P1;durP2;ratioP2;P2;SDS_P1;SDS_P2;PMS_P1;PMS_P2;Temp;Humidity;BMP_temperature;BMP_pressure;BME280_temperature;BME280_humidity;BME280_pressure;Samples;Min_cycle;Max_cycle;Signal;HPM_P1;HPM_P2
2022/04/21 00:00:15;;;;;;;92.15;33.35;;;;;;;26.22;70.54;97888.91;4940864;29;20047;-68
2022/04/21 00:03:05;;;;;;;83.32;34.40;;;;;;;26.26;77.68;97889.44;4943701;29;20113;-65
2022/04/21 00:05:47;;;;;;;86.47;34.50;;;;;;;26.26;77.70;97889.44;4924969;29;20113;-67
2022/04/21 00:08:37;;;;;;;92.38;35.42;;;;;;;26.22;76.80;97886.25;4940167;29;20054;-65
2022/04/21 00:11:18;;;;;;;94.63;34.20;;;;;;;26.11;70.84;97886.56;4943862;29;20051;-65
2022/04/21 00:14:07;;;;;;;80.80;33.30;;;;;;;26.14;76.51;97878.31;4941283;28;20051;-66
2022/04/21 00:16:48;;;;;;;97.28;34.97;;;;;;;26.07;72.71;97890.53;4947513;29;20051;-65
2022/04/21 00:19:38;;;;;;;81.80;32.33;;;;;;;26.07;76.20;97879.97;4941609;29;20802;-67
2022/04/21 00:25:34;;;;;;;111.25;37.78;;;;;;;25.88;68.17;97888.16;4929201;29;20075;-65
2022/04/21 00:28:09;;;;;;;93.13;33.30;;;;;;;26.00;77.18;97891.34;4948724;29;20043;-65
2022/04/21 00:30:58;;;;;;;90.93;33.35;;;;;;;26.00;73.46;97889.53;4938531;29;20047;-65
2022/04/21 00:33:47;;;;;;;94.32;33.58;;;;;;;26.01;73.77;97896.47;4947861;29;20047;-65
2022/04/21 00:36:29;;;;;;;71.85;30.70;;;;;;;26.05;74.97;97902.22;4930010;29;20551;-66
2022/04/21 00:39:18;;;;;;;73.53;31.88;;;;;;;26.04;78.65;97897.94;4924478;29;20070;-66
2022/04/21 00:42:01;;;;;;;74.38;32.53;;;;;;;26.05;78.05;97896.94;4943669;29;20051;-66
2022/04/21 00:44:50;;;;;;;92.30;30.73;;;;;;;26.05;81.18;97903.06;4930105;29;20051;-66
2022/04/21 00:47:32;;;;;;;77.15;31.02;;;;;;;26.01;78.73;97907.03;4947861;29;20051;-66
2022/04/21 00:50:25;;;;;;;86.03;30.95;;;;;;;25.99;77.74;97909.00;4944310;28;20062;-66
2022/04/21 00:53:08;;;;;;;83.82;30.52;;;;;;;25.94;75.24;97921.88;4933131;29;20059;-66
2022/04/21 00:55:57;;;;;;;71.30;31.00;;;;;;;25.95;79.78;97922.66;4948984;28;20267;-66
2022/04/21 00:58:41;;;;;;;79.70;29.48;;;;;;;25.94;79.19;97918.41;4948266;28;20051;-66
2022/04/21 01:04:31;;;;;;;71.30;29.58;;;;;;;25.86;78.77;97925.28;4947727;28;20074;-66
2022/04/21 01:07:20;;;;;;;85.10;29.85;;;;;;;25.80;77.31;97922.47;4948088;28;20054;-66
2022/04/21 01:10:02;;;;;;;85.63;28.75;;;;;;;25.83;80.12;97925.63;4946311;28;20051;-66
2022/04/21 01:12:51;;;;;;;73.50;29.77;;;;;;;25.94;82.14;97921.88;4940669;28;20051;-66
2022/04/21 01:15:41;;;;;;;85.85;29.42;;;;;;;25.91;78.38;97927.44;4930107;28;20054;-66
2022/04/21 01:18:34;;;;;;;91.05;30.58;;;;;;;25.92;80.24;97924.66;4946186;28;20063;-66
2022/04/21 01:21:29;;;;;;;83.55;30.42;;;;;;;25.95;80.33;97928.78;4941169;28;20142;-66
2022/04/21 01:24:05;;;;;;;95.80;32.85;;;;;;;25.91;76.45;97935.38;4896597;29;20062;-66
2022/04/21 01:27:10;;;;;;;87.82;32.97;;;;;;;25.98;77.76;97938.19;4936639;28;20051;-70
2022/04/21 01:29:45;;;;;;;90.55;35.45;;;;;;;26.09;79.55;97944.00;4949346;28;20744;-68
2022/04/21 01:32:38;;;;;;;87.95;36.22;;;;;;;26.18;81.90;97947.50;4946441;28;20119;-69
2022/04/21 01:35:19;;;;;;;145.98;44.78;;;;;;;26.14;72.71;97960.19;4950772;28;20062;-67
2022/04/21 01:41:11;;;;;;;119.75;52.85;;;;;;;26.39;75.20;97968.19;4949736;28;20299;-69
2022/04/21 01:44:00;;;;;;;144.65;57.65;;;;;;;26.50;72.10;97976.59;4948116;29;20515;-69
2022/04/21 01:46:42;;;;;;;145.75;57.63;;;;;;;26.62;65.83;97985.06;4945371;28;20149;-70
2022/04/21 01:49:31;;;;;;;143.40;53.38;;;;;;;26.80;65.83;97998.94;4934209;29;20126;-69
2022/04/21 01:52:13;;;;;;;150.00;51.00;;;;;;;26.92;62.69;98010.88;4961311;28;20078;-69
2022/04/21 01:55:03;;;;;;;115.68;39.45;;;;;;;27.14;60.96;98012.00;4967381;28;20086;-69
2022/04/21 01:57:45;;;;;;;111.72;31.30;;;;;;;27.32;55.81;98020.59;4947576;28;20054;-69
2022/04/21 02:00:35;;;;;;;95.22;25.58;;;;;;;27.53;55.40;98030.69;4906312;29;20138;-69
2022/04/21 02:03:24;;;;;;;86.93;21.50;;;;;;;27.69;51.89;98028.00;4928829;29;20246;-69
2022/04/21 02:06:06;;;;;;;98.50;20.60;;;;;;;27.82;50.96;98021.31;4930524;29;20087;-69
2022/04/21 02:08:55;;;;;;;85.38;18.98;;;;;;;27.94;48.97;98019.94;4940973;28;20059;-68
2022/04/21 02:11:44;;;;;;;62.30;18.73;;;;;;;28.08;50.00;98021.91;4911099;29;20380;-69
2022/04/21 02:14:37;;;;;;;67.78;17.20;;;;;;;28.23;49.89;98028.16;4934329;28;20051;-69
2022/04/21 02:17:19;;;;;;;72.38;20.73;;;;;;;28.35;48.50;98024.09;4909164;29;20533;-68
2022/04/21 02:20:10;;;;;;;60.15;15.95;;;;;;;28.45;46.64;98040.59;4909970;29;20063;-69
2022/04/21 02:22:52;;;;;;;63.60;15.27;;;;;;;28.63;50.91;98036.84;4926886;29;20113;-68
2022/04/21 02:25:41;;;;;;;63.33;14.23;;;;;;;28.80;46.93;98033.13;4927707;29;20055;-69
2022/04/21 02:28:25;;;;;;;44.42;13.88;;;;;;;29.00;48.98;98054.69;4920432;29;20060;-68
2022/04/21 02:31:13;;;;;;;53.72;13.32;;;;;;;29.14;46.82;98053.88;4910608;29;20059;-66
2022/04/21 02:33:55;;;;;;;47.67;14.15;;;;;;;29.20;46.17;98053.19;4928387;29;20051;-68
2022/04/21 02:36:44;;;;;;;59.17;14.38;;;;;;;29.40;44.82;98050.88;4927909;29;20484;-68
2022/04/21 02:39:39;;;;;;;50.20;14.02;;;;;;;29.62;45.44;98050.00;4930973;29;20747;-68
2022/04/21 02:42:15;;;;;;;57.03;14.05;;;;;;;29.47;44.45;98049.97;4928127;29;20055;-68
2022/04/21 02:45:08;;;;;;;55.80;16.08;;;;;;;29.52;44.28;98050.28;4928103;29;20079;-69
2022/04/21 02:47:51;;;;;;;57.40;16.20;;;;;;;29.67;45.78;98060.91;4935916;29;20531;-68
2022/04/21 02:50:47;;;;;;;59.45;15.70;;;;;;;29.95;45.42;98069.91;4950030;28;20050;-68
2022/04/21 02:59:42;;;;;;;59.38;15.48;;;;;;;30.03;44.50;98090.25;4946797;29;20145;-68
2022/04/21 03:02:31;;;;;;;54.72;16.75;;;;;;;30.05;44.43;98099.69;4918903;29;20047;-69
2022/04/21 03:05:13;;;;;;;53.83;19.00;;;;;;;30.11;46.62;98098.13;4925340;29;20055;-68
2022/04/21 03:08:02;;;;;;;49.58;16.52;;;;;;;30.07;44.36;98086.22;4928635;29;20055;-68
2022/04/21 03:10:44;;;;;;;60.80;16.77;;;;;;;30.00;43.91;98085.31;4927247;29;20043;-68
2022/04/21 03:13:33;;;;;;;59.42;19.00;;;;;;;30.00;43.28;98091.47;4927883;29;20142;-68
2022/04/21 03:16:15;;;;;;;67.75;20.23;;;;;;;30.14;41.76;98086.31;4927179;29;20083;-68
2022/04/21 03:19:04;;;;;;;73.35;18.50;;;;;;;30.29;41.64;98097.75;4924042;29;20055;-69
2022/04/21 03:25:00;;;;;;;56.28;14.98;;;;;;;30.67;41.42;98099.28;4947547;28;20043;-68
2022/04/21 03:27:50;;;;;;;64.07;15.25;;;;;;;30.60;41.12;98100.19;4946062;29;20057;-69
2022/04/21 03:30:32;;;;;;;53.75;16.65;;;;;;;30.55;40.44;98090.13;4927471;29;20052;-69
2022/04/21 03:33:21;;;;;;;72.32;15.55;;;;;;;30.80;40.47;98094.13;4919895;29;20065;-69
2022/04/21 03:36:11;;;;;;;52.92;14.48;;;;;;;30.95;42.63;98101.22;4923514;29;20422;-68
2022/04/21 03:38:59;;;;;;;51.78;13.65;;;;;;;31.18;43.28;98097.38;4930886;29;20051;-68
2022/04/21 03:41:53;;;;;;;41.20;11.88;;;;;;;31.37;41.08;98101.22;4946163;29;20051;-67
2022/04/21 03:44:39;;;;;;;41.88;11.32;;;;;;;31.45;44.88;98082.44;4946490;28;20051;-68
2022/04/21 03:47:29;;;;;;;48.45;10.38;;;;;;;31.18;40.89;98093.88;4930703;29;20738;-67
2022/04/21 03:50:10;;;;;;;;;;;;;;;31.30;43.79;98089.69;4948455;28;20113;-67
2022/04/21 03:53:05;;;;;;;20.45;7.93;;;;;;;31.41;41.67;98091.84;4951089;28;19922;-68
2022/04/21 03:55:41;;;;;;;38.88;9.07;;;;;;;31.36;44.03;98099.59;4947624;28;20047;-68
2022/04/21 03:58:29;;;;;;;42.17;9.68;;;;;;;31.70;43.07;98100.69;4945589;29;20059;-68
2022/04/21 04:01:10;;;;;;;43.00;11.90;;;;;;;31.35;40.35;98100.59;4945837;28;20146;-68
2022/04/21 04:04:05;;;;;;;54.13;12.60;;;;;;;31.02;42.05;98081.63;4946157;28;20367;-68
2022/04/21 04:12:55;;;;;;;37.95;8.88;;;;;;;30.81;44.08;98074.44;4940694;28;20432;-69
2022/04/21 04:15:48;;;;;;;45.85;9.70;;;;;;;30.76;42.67;98068.88;4924809;29;20052;-69
2022/04/21 04:18:37;;;;;;;43.03;10.18;;;;;;;30.86;44.69;98063.25;4932379;29;20074;-68
2022/04/21 04:21:19;;;;;;;44.65;10.40;;;;;;;30.79;44.56;98065.03;4930041;29;20503;-68
2022/04/21 04:24:08;;;;;;;42.45;8.60;;;;;;;30.88;41.99;98063.06;4928072;29;20047;-67
2022/04/21 04:26:50;;;;;;;36.10;9.40;;;;;;;31.30;40.83;98071.03;4944960;28;20089;-69
2022/04/21 04:29:39;;;;;;;41.40;9.98;;;;;;;31.33;41.79;98061.84;4949184;28;20066;-68
2022/04/21 04:32:21;;;;;;;38.50;9.48;;;;;;;31.48;43.70;98068.75;4944707;28;20487;-68
2022/04/21 04:35:10;;;;;;;53.70;11.60;;;;;;;31.42;43.13;98063.38;4947968;29;20058;-69
2022/04/21 04:37:59;;;;;;;50.15;10.40;;;;;;;31.76;44.39;98063.44;4930201;29;20123;-69
2022/04/21 04:40:41;;;;;;;42.75;12.25;;;;;;;31.93;39.61;98071.91;4942083;29;20051;-69
2022/04/21 04:43:30;;;;;;;39.88;12.52;;;;;;;32.45;40.82;98068.72;4948201;28;20117;-70
2022/04/21 04:46:38;;;;;;;53.70;12.65;;;;;;;32.90;38.82;98072.56;4929074;29;20048;-66
2022/04/21 04:49:19;;;;;;;50.67;13.23;;;;;;;32.97;40.84;98072.56;4948039;28;20102;-70
2022/04/21 04:52:14;;;;;;;57.53;13.90;;;;;;;33.60;40.74;98067.69;4946645;28;20054;-66
2022/04/21 04:55:11;;;;;;;41.95;15.20;;;;;;;33.80;43.47;98074.66;4947221;28;20145;-64
2022/04/21 04:57:46;;;;;;;50.03;17.17;;;;;;;33.96;43.54;98069.91;4945785;29;20487;-65
2022/04/21 05:00:36;;;;;;;49.00;19.17;;;;;;;33.19;38.90;98070.56;4945312;28;20055;-68
2022/04/21 05:03:19;;;;;;;51.83;18.77;;;;;;;33.20;43.99;98064.19;4945534;29;20066;-64
2022/04/21 05:06:09;;;;;;;60.33;19.40;;;;;;;33.61;42.97;98066.63;4942819;28;20087;-65
2022/04/21 05:08:50;;;;;;;59.72;21.58;;;;;;;33.54;38.03;98069.31;4942124;28;20535;-65
2022/04/21 05:11:47;;;;;;;54.88;20.67;;;;;;;33.03;36.56;98075.25;4940267;28;20066;-65
2022/04/21 05:14:24;;;;;;;45.67;14.65;;;;;;;33.41;37.06;98082.69;4947859;29;20059;-65
2022/04/21 05:17:19;;;;;;;39.63;14.18;;;;;;;33.03;37.64;98087.78;4946460;28;20046;-64
2022/04/21 05:20:15;;;;;;;40.55;11.65;;;;;;;33.24;37.86;98097.50;4926357;29;20047;-66
2022/04/21 05:23:06;;;;;;;42.15;11.32;;;;;;;33.32;36.83;98102.63;4942948;28;20091;-66
2022/04/21 05:25:47;;;;;;;50.10;11.10;;;;;;;33.58;37.83;98097.28;4947507;29;20051;-66
2022/04/21 05:28:36;;;;;;;37.47;10.52;;;;;;;33.87;46.34;98093.38;4932298;28;20066;-66
2022/04/21 05:31:21;;;;;;;36.00;10.93;;;;;;;33.98;37.73;98108.78;4947746;29;20471;-69
2022/04/21 05:34:17;;;;;;;35.20;11.93;;;;;;;33.91;46.24;98102.63;4947575;28;20058;-69
2022/04/21 05:36:53;;;;;;;34.42;11.45;;;;;;;34.32;38.64;98093.50;4948071;29;20485;-69
2022/04/21 05:39:48;;;;;;;32.75;10.38;;;;;;;34.50;42.61;98097.09;4945211;28;20047;-69
2022/04/21 05:42:24;;;;;;;49.90;11.15;;;;;;;34.65;39.96;98104.03;4967546;28;20455;-69
2022/04/21 05:45:14;;;;;;;47.63;12.68;;;;;;;34.52;40.20;98097.72;4947543;28;20474;-68
2022/04/21 05:48:05;;;;;;;31.67;9.90;;;;;;;34.67;35.71;98105.47;4947537;28;20094;-69
2022/04/21 05:50:50;;;;;;;45.90;9.52;;;;;;;34.50;37.63;98102.44;4947817;29;20054;-69
2022/04/21 05:53:52;;;;;;;37.05;9.55;;;;;;;34.84;35.25;98106.66;4927947;29;20067;-69
2022/04/21 05:56:28;;;;;;;40.85;9.18;;;;;;;34.79;34.11;98097.63;4910958;29;20559;-69
2022/04/21 05:59:16;;;;;;;31.52;9.98;;;;;;;35.12;39.05;98092.84;4925017;29;20345;-69
2022/04/21 06:02:07;;;;;;;27.80;8.75;;;;;;;35.25;40.28;98094.66;4929089;29;20087;-69
2022/04/21 06:04:49;;;;;;;39.65;11.98;;;;;;;34.91;35.88;98090.53;4929027;29;20051;-69
2022/04/21 06:07:39;;;;;;;29.33;7.82;;;;;;;34.83;33.33;98091.63;4928369;29;20126;-69
2022/04/21 06:10:20;;;;;;;33.65;7.78;;;;;;;35.02;37.50;98086.34;4926348;29;20095;-69
2022/04/21 06:13:09;;;;;;;37.83;7.07;;;;;;;34.89;33.16;98089.91;4924500;29;20052;-68
2022/04/21 06:15:51;;;;;;;42.10;8.10;;;;;;;34.96;39.11;98069.31;4927821;29;21401;-70
2022/04/21 06:18:40;;;;;;;37.83;8.68;;;;;;;34.81;36.74;98066.91;4928150;29;20763;-69
2022/04/21 06:21:29;;;;;;;29.92;7.38;;;;;;;35.04;37.63;98066.34;4928070;29;20574;-69
2022/04/21 06:24:18;;;;;;;31.35;7.25;;;;;;;34.95;39.30;98054.28;4928057;29;20055;-69
2022/04/21 06:27:00;;;;;;;39.33;8.13;;;;;;;34.62;35.34;98058.97;4927808;29;20058;-69
2022/04/21 06:29:49;;;;;;;31.75;7.25;;;;;;;34.26;35.16;98052.34;4929646;29;20063;-69
2022/04/21 06:32:31;;;;;;;31.65;8.23;;;;;;;34.44;32.85;98057.00;4926858;29;20062;-69
2022/04/21 06:35:20;;;;;;;38.70;7.65;;;;;;;34.71;40.10;98038.94;4929059;29;20124;-68
2022/04/21 06:38:02;;;;;;;36.58;7.85;;;;;;;34.68;37.49;98040.19;4929550;29;20151;-69
2022/04/21 06:40:51;;;;;;;47.88;7.45;;;;;;;34.55;34.59;98040.28;4929018;29;20043;-69
2022/04/21 06:49:40;;;;;;;26.23;7.20;;;;;;;34.51;38.76;98037.19;4927243;29;20475;-68
2022/04/21 06:52:30;;;;;;;43.58;7.78;;;;;;;34.23;33.33;98052.78;4936246;29;20075;-67
2022/04/21 06:55:19;;;;;;;37.47;9.25;;;;;;;34.32;39.86;98040.81;4944686;28;20055;-69
2022/04/21 06:58:01;;;;;;;30.60;7.70;;;;;;;34.18;39.96;98037.31;4947565;28;20058;-68
2022/04/21 07:00:56;;;;;;;35.47;10.10;;;;;;;34.10;35.23;98044.75;4946858;29;20066;-68
2022/04/21 07:03:33;;;;;;;32.70;9.65;;;;;;;34.22;36.11;98052.97;4945163;29;20498;-68
2022/04/21 07:06:22;;;;;;;23.80;6.50;;;;;;;34.09;37.79;98049.28;4946676;29;20792;-68
2022/04/21 07:09:11;;;;;;;36.63;7.03;;;;;;;33.91;39.48;98041.13;4946526;29;20055;-67
2022/04/21 07:12:06;;;;;;;31.40;7.80;;;;;;;33.66;31.69;98046.31;4930923;29;20051;-68
2022/04/21 07:14:41;;;;;;;28.48;6.90;;;;;;;33.76;43.43;98052.03;4946451;29;20047;-68
2022/04/21 07:17:31;;;;;;;36.22;9.38;;;;;;;33.95;35.42;98049.53;4946074;29;20070;-68
2022/04/21 07:20:16;;;;;;;36.83;10.73;;;;;;;34.45;44.29;98039.91;4947667;29;20047;-67
2022/04/21 07:23:12;;;;;;;33.65;7.55;;;;;;;34.67;35.24;98043.09;4946458;29;20135;-68
2022/04/21 07:25:47;;;;;;;33.08;7.80;;;;;;;34.71;34.20;98045.13;4950894;29;20660;-68
2022/04/21 07:28:36;;;;;;;26.13;6.78;;;;;;;34.81;35.02;98044.66;4951135;29;20062;-68
2022/04/21 07:31:18;;;;;;;45.17;7.50;;;;;;;34.65;34.31;98039.78;4951199;29;20054;-68
2022/04/21 07:34:07;;;;;;;29.52;7.45;;;;;;;34.79;35.07;98036.06;4951730;29;20463;-67
2022/04/21 07:36:49;;;;;;;33.97;9.48;;;;;;;34.87;35.05;98041.16;4945876;29;20142;-67
2022/04/21 07:39:40;;;;;;;31.58;7.22;;;;;;;34.84;32.52;98045.06;4949233;29;20051;-67
2022/04/21 07:42:22;;;;;;;27.35;6.80;;;;;;;34.86;36.96;98039.50;4945494;28;20523;-67
2022/04/21 07:45:11;;;;;;;35.42;7.50;;;;;;;34.63;35.36;98037.34;4950273;29;20039;-67
2022/04/21 07:48:00;;;;;;;29.80;6.75;;;;;;;34.75;37.22;98034.81;4950259;29;20047;-67
2022/04/21 07:50:42;;;;;;;28.35;8.98;;;;;;;34.69;31.85;98036.47;4948768;29;20125;-68
2022/04/21 07:53:40;;;;;;;67.55;13.52;;;;;;;34.46;34.60;98029.00;4948832;28;20051;-68
2022/04/21 07:56:20;;;;;;;57.58;12.82;;;;;;;34.22;36.22;98034.22;4945650;29;20043;-68
2022/04/21 07:59:09;;;;;;;53.38;12.75;;;;;;;34.33;36.12;98031.72;4951440;29;20130;-68
2022/04/21 08:01:51;;;;;;;63.08;13.63;;;;;;;34.25;36.54;98023.94;4950722;29;20047;-68
2022/04/21 08:04:39;;;;;;;43.40;13.02;;;;;;;34.19;36.32;98030.13;4951396;29;20051;-67
2022/04/21 08:07:21;;;;;;;51.38;14.13;;;;;;;33.96;37.57;98029.81;4950029;29;20109;-66
2022/04/21 08:10:11;;;;;;;44.85;14.13;;;;;;;33.44;36.96;98035.00;4951525;29;20055;-70
2022/04/21 08:13:01;;;;;;;47.55;12.88;;;;;;;33.20;37.91;98032.16;4950974;29;20066;-69
2022/04/21 08:15:43;;;;;;;52.40;13.25;;;;;;;33.18;36.89;98043.03;4948552;29;20054;-68
2022/04/21 08:18:32;;;;;;;56.95;11.18;;;;;;;32.96;36.96;98039.72;4950089;29;20051;-68
2022/04/21 08:21:21;;;;;;;70.22;12.00;;;;;;;32.77;37.96;98003.16;4950006;29;20055;-68
2022/04/21 08:34:13;;;;;;;48.55;8.05;;;;;;;32.04;36.22;98087.38;4949659;29;20071;-67
2022/04/21 08:37:12;;;;;;;66.32;15.38;;;;;;;31.90;36.44;98075.81;4947853;28;20078;-67
2022/04/21 08:39:57;;;;;;;51.50;7.45;;;;;;;32.06;37.02;98077.34;4950895;28;20051;-68
2022/04/21 08:42:52;;;;;;;41.15;9.05;;;;;;;32.29;37.96;98075.22;4949714;29;20043;-69
2022/04/21 08:45:45;;;;;;;33.55;6.35;;;;;;;32.34;35.21;98081.78;4948978;29;20210;-68
2022/04/21 08:48:37;;;;;;;33.92;6.32;;;;;;;32.27;35.48;98071.94;4948462;29;20090;-68
2022/04/21 08:51:20;;;;;;;31.48;6.40;;;;;;;32.30;35.55;98081.38;4948778;28;20554;-67
2022/04/21 08:54:14;;;;;;;32.75;6.10;;;;;;;32.35;37.25;98073.59;4930734;29;20048;-67
2022/04/21 08:57:04;;;;;;;24.50;5.95;;;;;;;32.46;36.98;98075.72;4930159;29;20055;-68
2022/04/21 08:59:46;;;;;;;22.98;6.25;;;;;;;32.54;36.35;98072.03;4931233;29;20070;-68
2022/04/21 09:02:42;;;;;;;26.55;5.93;;;;;;;32.39;36.53;98074.88;4930131;29;20059;-68
2022/04/21 09:05:34;;;;;;;28.20;5.57;;;;;;;32.45;37.58;98073.22;4929937;29;20043;-68
2022/04/21 09:08:28;;;;;;;21.42;5.28;;;;;;;32.52;37.61;98058.91;4929911;29;20043;-69
2022/04/21 09:11:21;;;;;;;22.90;5.80;;;;;;;32.52;38.82;98063.41;4930802;29;20048;-69
2022/04/21 09:14:03;;;;;;;28.75;7.00;;;;;;;32.36;37.83;98043.25;4931229;29;20127;-68
2022/04/21 09:16:53;;;;;;;30.98;6.30;;;;;;;32.16;37.17;98051.19;4930153;29;20091;-68
2022/04/21 09:19:35;;;;;;;28.20;6.30;;;;;;;32.29;38.44;98043.22;4930284;29;20055;-68
2022/04/21 09:22:24;;;;;;;37.65;6.60;;;;;;;32.38;36.88;98038.53;4930328;29;20087;-68
2022/04/21 09:25:13;;;;;;;33.08;6.40;;;;;;;32.30;38.21;98044.06;4930204;29;20284;-67
2022/04/21 09:28:03;;;;;;;23.35;6.13;;;;;;;32.34;39.44;98033.78;4926165;29;20080;-69
2022/04/21 09:30:54;;;;;;;27.27;7.32;;;;;;;32.34;38.05;98044.47;4927432;29;20126;-69
2022/04/21 09:33:40;;;;;;;28.13;7.07;;;;;;;32.18;35.83;98037.63;4930397;29;20441;-69
2022/04/21 09:36:29;;;;;;;23.95;6.10;;;;;;;32.26;38.35;98038.28;4930286;29;20087;-68
2022/04/21 09:39:22;;;;;;;29.13;6.50;;;;;;;32.26;37.19;98040.13;4913337;29;20047;-69
2022/04/21 09:42:03;;;;;;;17.77;5.82;;;;;;;32.21;38.10;98043.41;4930741;29;20047;-69
2022/04/21 09:47:54;;;;;;;23.38;6.05;;;;;;;32.20;37.67;98031.09;4927262;29;20055;-68
2022/04/21 09:50:42;;;;;;;35.90;6.15;;;;;;;32.13;36.49;98032.88;4929293;29;20054;-69
2022/04/21 09:53:25;;;;;;;26.52;5.60;;;;;;;32.10;37.45;98027.09;4942598;28;20054;-69
2022/04/21 09:56:14;;;;;;;24.00;5.95;;;;;;;32.13;36.78;98027.53;4948430;29;20089;-69
2022/04/21 09:59:12;;;;;;;27.13;6.57;;;;;;;32.08;37.93;98024.66;4949598;29;20051;-69
2022/04/21 10:02:02;;;;;;;29.83;6.50;;;;;;;32.09;38.30;98026.28;4946760;29;20126;-69
2022/04/21 10:04:46;;;;;;;30.88;7.35;;;;;;;31.98;37.35;98021.53;4947455;29;20054;-69
2022/04/21 10:07:35;;;;;;;29.98;7.07;;;;;;;31.99;37.63;98025.84;4948439;29;20051;-69
2022/04/21 10:10:17;;;;;;;25.23;8.20;;;;;;;31.99;38.85;98025.03;4949017;29;20451;-69
2022/04/21 10:13:08;;;;;;;37.53;9.20;;;;;;;31.93;39.27;98016.78;4947631;29;20071;-69
2022/04/21 10:15:51;;;;;;;29.58;7.40;;;;;;;31.84;38.93;98011.84;4948477;29;20934;-69
2022/04/21 10:18:41;;;;;;;39.45;8.45;;;;;;;31.77;38.52;98010.97;4947753;29;20881;-69
2022/04/21 10:21:33;;;;;;;29.60;7.35;;;;;;;31.80;39.64;98013.22;4947203;29;20058;-68
2022/04/21 10:24:49;;;;;;;32.45;7.88;;;;;;;31.79;37.67;98009.75;4946142;28;20480;-69
2022/04/21 10:27:49;;;;;;;22.25;6.80;;;;;;;31.66;38.17;98011.53;4945725;29;20055;-69
2022/04/21 10:30:38;;;;;;;29.75;6.53;;;;;;;31.67;37.80;98011.34;4946575;29;20114;-70
2022/04/21 10:33:52;;;;;;;39.53;7.75;;;;;;;31.68;36.75;98018.31;4947638;29;20051;-66
2022/04/21 10:36:49;;;;;;;21.95;6.47;;;;;;;31.54;37.96;98012.03;4946176;29;20051;-68
2022/04/21 10:39:40;;;;;;;27.67;6.70;;;;;;;31.49;37.51;98017.13;4946604;29;20054;-69
2022/04/21 10:42:28;;;;;;;30.45;7.22;;;;;;;31.53;39.01;98015.69;4947321;28;20062;-68
2022/04/21 10:45:28;;;;;;;30.00;7.22;;;;;;;31.48;39.17;98014.66;4947110;29;20597;-68
2022/04/21 10:48:09;;;;;;;29.77;7.07;;;;;;;31.51;38.38;98023.09;4947653;29;20078;-68
2022/04/21 10:51:04;;;;;;;27.80;6.70;;;;;;;31.35;37.69;98012.72;4948581;29;20075;-68
2022/04/21 10:57:12;;;;;;;25.80;7.20;;;;;;;31.47;38.02;98016.50;4947015;29;20122;-69
2022/04/21 11:00:05;;;;;;;22.25;6.28;;;;;;;31.35;39.11;98012.72;4945161;28;20078;-68
2022/04/21 11:02:54;;;;;;;24.90;6.65;;;;;;;31.30;38.07;98014.31;4948448;29;20118;-70
2022/04/21 11:05:43;;;;;;;30.23;6.43;;;;;;;31.17;38.50;98007.06;4948663;29;20058;-69
2022/04/21 11:08:25;;;;;;;30.65;5.82;;;;;;;31.17;37.46;98012.38;4948107;29;20043;-68
2022/04/21 11:11:50;;;;;;;16.23;5.53;;;;;;;31.16;37.28;98008.06;4946715;29;20051;-68
2022/04/21 11:14:31;;;;;;;29.35;5.60;;;;;;;31.07;38.03;98009.22;4947692;29;20138;-69
2022/04/21 11:17:23;;;;;;;26.95;5.25;;;;;;;31.02;36.65;98011.63;4947498;28;20063;-69
2022/04/21 11:20:05;;;;;;;19.17;5.20;;;;;;;30.96;38.39;98009.72;4945528;29;20127;-69
2022/04/21 11:23:00;;;;;;;20.75;6.60;;;;;;;30.88;40.26;98009.84;4940999;29;20078;-70
2022/04/21 11:25:35;;;;;;;27.23;6.88;;;;;;;30.82;38.79;98008.75;4947917;29;20062;-69
2022/04/21 11:28:25;;;;;;;22.38;5.35;;;;;;;30.91;37.45;98015.59;4945363;29;20054;-68
2022/04/21 11:31:09;;;;;;;24.92;6.28;;;;;;;30.86;40.58;98007.38;4931253;29;20206;-68
2022/04/21 11:34:08;;;;;;;31.48;5.50;;;;;;;30.93;38.83;98010.09;4934831;29;20503;-68
2022/04/21 11:37:01;;;;;;;22.90;5.45;;;;;;;30.96;39.21;98001.75;4943827;29;20043;-69
2022/04/21 11:39:45;;;;;;;27.98;6.13;;;;;;;30.88;39.63;97999.22;4945075;29;20062;-69
2022/04/21 11:42:38;;;;;;;27.98;5.85;;;;;;;30.87;38.78;97995.72;4947727;29;20122;-69
2022/04/21 11:45:27;;;;;;;31.27;6.47;;;;;;;30.87;39.89;97993.06;4946305;28;20375;-68
2022/04/21 11:48:16;;;;;;;30.75;4.85;;;;;;;30.85;38.37;98004.91;4947587;29;20069;-69
2022/04/21 11:51:06;;;;;;;23.65;4.82;;;;;;;30.75;39.08;98026.50;4945500;28;20626;-68
2022/04/21 11:53:49;;;;;;;27.70;5.40;;;;;;;30.63;39.30;98020.06;4945491;29;20472;-69
2022/04/21 11:56:39;;;;;;;29.65;5.70;;;;;;;30.52;39.14;98037.31;4947325;29;20428;-68
2022/04/21 11:59:38;;;;;;;35.08;6.03;;;;;;;30.40;39.36;98049.44;4943260;29;20062;-69
2022/04/21 12:08:44;;;;;;;27.55;6.18;;;;;;;29.96;40.28;98057.44;4944571;29;20047;-69
2022/04/21 12:11:35;;;;;;;31.90;7.80;;;;;;;29.90;39.99;98047.53;4945736;28;20055;-68
2022/04/21 12:14:19;;;;;;;32.13;6.50;;;;;;;29.81;41.21;98054.78;4948302;29;20051;-69
2022/04/21 12:17:18;;;;;;;35.42;8.68;;;;;;;29.65;40.96;98061.09;4946715;28;20047;-68
2022/04/21 12:20:02;;;;;;;36.97;7.55;;;;;;;29.57;41.34;98066.47;4942313;28;20067;-70
2022/04/21 12:22:51;;;;;;;42.05;7.15;;;;;;;29.41;42.53;98069.28;4942158;29;20126;-68
2022/04/21 12:25:37;;;;;;;22.33;6.88;;;;;;;29.24;42.53;98073.88;4943033;29;20043;-66
2022/04/21 12:28:26;;;;;;;42.15;7.03;;;;;;;29.13;42.84;98076.97;4943511;29;20055;-68
2022/04/21 12:31:14;;;;;;;39.60;6.93;;;;;;;29.02;43.92;98085.34;4949737;29;20051;-65
2022/04/21 12:34:10;;;;;;;41.63;7.50;;;;;;;28.85;43.84;98086.44;4948932;28;20055;-68
2022/04/21 12:36:59;;;;;;;42.97;7.07;;;;;;;28.84;44.79;98090.09;4949260;29;20094;-67
2022/04/21 12:39:49;;;;;;;41.92;6.88;;;;;;;28.79;44.44;98098.59;4948174;29;20426;-67
2022/04/21 12:42:53;;;;;;;38.27;7.03;;;;;;;28.48;43.51;98101.22;4948140;29;20051;-69
2022/04/21 12:45:43;;;;;;;31.40;5.30;;;;;;;28.38;43.39;98091.81;4949149;29;20047;-69
2022/04/21 12:48:31;;;;;;;29.45;6.68;;;;;;;28.34;43.67;98088.69;4949655;29;20879;-71
2022/04/21 12:51:20;;;;;;;27.77;5.97;;;;;;;28.35;44.39;98094.81;4925785;29;20059;-68
2022/04/21 12:54:14;;;;;;;30.95;6.10;;;;;;;28.36;44.65;98099.13;4947244;28;20467;-67
2022/04/21 12:57:07;;;;;;;30.88;6.28;;;;;;;28.26;45.31;98106.44;4947313;29;20054;-68
2022/04/21 12:59:57;;;;;;;34.05;6.13;;;;;;;28.13;45.10;98120.22;4945665;29;20051;-66
2022/04/21 13:02:39;;;;;;;26.23;5.70;;;;;;;28.11;45.87;98122.19;4944397;29;20138;-67
2022/04/21 13:05:28;;;;;;;30.92;6.47;;;;;;;28.06;46.00;98127.19;4947964;29;20122;-68
2022/04/21 13:08:10;;;;;;;39.65;6.90;;;;;;;27.95;46.70;98119.59;4945769;29;20059;-66
2022/04/21 13:11:01;;;;;;;27.48;5.78;;;;;;;27.88;46.09;98131.84;4943645;28;20066;-66
2022/04/21 13:13:43;;;;;;;28.92;5.65;;;;;;;27.80;46.17;98120.28;4940330;29;20047;-68
2022/04/21 13:16:32;;;;;;;35.03;7.32;;;;;;;27.70;46.33;98124.94;4947974;29;20483;-66
2022/04/21 13:19:14;;;;;;;28.98;5.38;;;;;;;27.69;46.18;98133.06;4944794;28;20054;-67
2022/04/21 13:22:16;;;;;;;27.33;5.90;;;;;;;27.62;47.54;98132.88;4929963;29;20055;-67
2022/04/21 13:24:58;;;;;;;31.77;7.13;;;;;;;27.51;47.90;98125.25;4934886;29;20055;-68
2022/04/21 13:27:47;;;;;;;25.70;6.93;;;;;;;27.42;47.91;98120.97;4950177;28;20043;-67
2022/04/21 13:30:29;;;;;;;47.58;7.28;;;;;;;27.46;47.76;98116.97;4945171;29;20488;-66
2022/04/21 13:33:21;;;;;;;30.25;6.95;;;;;;;27.34;48.18;98123.63;4935989;29;20404;-66
2022/04/21 13:36:05;;;;;;;21.95;6.97;;;;;;;27.32;49.15;98122.94;4942067;28;20086;-66
2022/04/21 13:38:55;;;;;;;33.58;6.68;;;;;;;27.29;49.10;98120.66;4943459;28;20641;-66
2022/04/21 13:41:37;;;;;;;30.10;7.80;;;;;;;27.18;49.64;98140.31;4944586;29;20051;-67
2022/04/21 13:44:26;;;;;;;27.95;6.93;;;;;;;27.09;49.85;98135.16;4948048;29;20066;-66
2022/04/21 13:47:28;;;;;;;24.67;6.57;;;;;;;27.11;49.26;98136.66;4948581;29;20131;-65
2022/04/21 13:50:17;;;;;;;23.42;6.07;;;;;;;27.01;49.93;98136.81;4940994;29;20055;-66